Time;durP1;ratioP1;P1;durP2;ratioP2;P2;SDS_P1;SDS_P2;PMS_P1;PMS_P2;Temp;Humidity;BMP_temperature;BMP_pressure;BME280_temperature;BME280_humidity;BME280_pressure;Samples;Min_cycle;Max_cycle;Signal;HPM_P1;HPM_P2
2022/01/25 00:08:27;;;;;;;10.32;7.80;;;16.30;42.00;;;;;;5014297;28;20207;-72
2022/01/25 00:24:53;;;;;;;10.57;7.43;;;16.20;42.10;;;;;;5015181;28;20213;-70
2022/01/25 00:27:42;;;;;;;10.80;7.85;;;16.20;42.10;;;;;;5014313;28;20672;-71
2022/01/25 00:33:03;;;;;;;10.55;8.20;;;16.10;42.10;;;;;;5002084;28;20619;-70
2022/01/25 00:35:31;;;;;;;10.82;8.15;;;16.10;42.10;;;;;;5013805;28;20220;-72
2022/01/25 00:37:58;;;;;;;10.63;8.45;;;16.00;41.90;;;;;;5013372;28;20223;-71
2022/01/25 00:40:26;;;;;;;11.13;8.13;;;16.10;42.00;;;;;;5013509;28;20197;-70
2022/01/25 00:42:52;;;;;;;12.05;8.50;;;16.00;42.00;;;;;;5013548;28;20231;-70
2022/01/25 00:45:20;;;;;;;10.60;8.00;;;16.00;41.90;;;;;;5014631;28;20287;-70
2022/01/25 00:47:50;;;;;;;9.82;7.63;;;16.00;41.90;;;;;;5013818;28;20259;-72
2022/01/25 00:50:17;;;;;;;9.70;7.75;;;16.00;42.10;;;;;;5013438;28;20201;-72
2022/01/25 00:55:31;;;;;;;11.00;7.78;;;15.90;41.90;;;;;;5013369;28;20204;-71
2022/01/25 00:57:58;;;;;;;9.13;7.75;;;15.90;41.90;;;;;;5013380;28;20730;-69
2022/01/25 01:00:25;;;;;;;9.40;8.38;;;15.90;41.90;;;;;;5013300;28;20663;-70
2022/01/25 01:02:52;;;;;;;11.40;8.35;;;15.90;42.00;;;;;;5013349;28;20267;-72
2022/01/25 01:05:19;;;;;;;10.25;8.18;;;15.90;41.70;;;;;;5013391;28;20639;-71
2022/01/25 01:07:48;;;;;;;10.43;8.35;;;15.90;41.80;;;;;;5012947;28;20291;-69
2022/01/25 01:10:19;;;;;;;9.90;7.55;;;15.80;41.80;;;;;;5014287;28;20540;-73
2022/01/25 01:15:34;;;;;;;9.60;7.35;;;15.80;42.20;;;;;;4996461;28;20196;-73
2022/01/25 01:29:13;;;;;;;10.05;7.43;;;15.70;41.80;;;;;;5012932;28;20185;-70
2022/01/25 01:31:50;;;;;;;10.82;7.60;;;15.70;41.70;;;;;;5012749;28;20250;-73
2022/01/25 01:35:00;;;;;;;10.07;6.90;;;15.70;41.80;;;;;;5012578;28;20611;-70
2022/01/25 01:37:58;;;;;;;9.55;7.60;;;15.70;41.80;;;;;;5012441;28;20196;-70
2022/01/25 01:40:48;;;;;;;8.45;7.55;;;15.70;42.30;;;;;;5013642;28;20188;-69
2022/01/25 01:43:27;;;;;;;8.82;6.88;;;15.60;42.00;;;;;;5012457;28;20221;-72
2022/01/25 01:46:00;;;;;;;8.75;7.38;;;15.60;41.90;;;;;;5012430;28;20208;-70
2022/01/25 01:48:30;;;;;;;8.50;7.50;;;15.60;41.80;;;;;;5012773;28;20292;-71
2022/01/25 01:51:03;;;;;;;9.75;7.68;;;15.60;41.60;;;;;;5012751;28;20208;-71
2022/01/25 01:53:30;;;;;;;9.85;7.65;;;15.60;41.70;;;;;;5013017;28;20217;-70
2022/01/25 01:55:59;;;;;;;9.43;7.55;;;15.60;41.50;;;;;;5012892;28;20200;-71
2022/01/25 01:58:26;;;;;;;8.05;7.05;;;15.60;41.40;;;;;;5014356;28;20200;-70
2022/01/25 02:00:53;;;;;;;8.70;7.38;;;15.60;41.50;;;;;;5012628;28;20201;-70
2022/01/25 02:03:21;;;;;;;8.50;7.25;;;15.50;41.40;;;;;;5012110;28;20388;-70
2022/01/25 02:05:47;;;;;;;8.88;7.60;;;15.50;42.00;;;;;;5012325;28;20307;-70
2022/01/25 02:08:15;;;;;;;8.73;6.60;;;15.50;41.50;;;;;;5012624;28;20208;-70
2022/01/25 02:10:42;;;;;;;8.57;7.22;;;15.50;41.40;;;;;;5012465;28;20201;-72
2022/01/25 02:13:11;;;;;;;10.50;7.60;;;15.50;41.20;;;;;;5012082;28;20290;-72
2022/01/25 02:15:39;;;;;;;8.32;7.43;;;15.50;41.40;;;;;;5012138;28;20224;-70
2022/01/25 02:23:36;;;;;;;9.00;7.60;;;15.40;41.30;;;;;;5012192;28;20311;-73
2022/01/25 02:26:05;;;;;;;8.25;7.45;;;15.40;41.20;;;;;;5012099;28;20212;-71
2022/01/25 02:28:33;;;;;;;10.18;7.38;;;15.40;41.20;;;;;;5012148;28;20567;-70
2022/01/25 02:31:00;;;;;;;8.70;6.93;;;15.40;41.30;;;;;;5012296;28;20211;-71
2022/01/25 02:33:28;;;;;;;8.07;7.28;;;15.40;41.90;;;;;;5013072;28;20234;-72
2022/01/25 02:35:56;;;;;;;8.00;6.65;;;15.40;41.20;;;;;;5011902;28;20204;-72
2022/01/25 02:38:23;;;;;;;8.77;7.85;;;15.40;41.20;;;;;;5011988;28;20197;-71
2022/01/25 02:40:50;;;;;;;7.80;7.00;;;15.30;41.00;;;;;;5011718;28;20200;-70
2022/01/25 02:43:19;;;;;;;8.98;7.35;;;15.30;41.20;;;;;;5011843;28;20315;-72
2022/01/25 02:45:51;;;;;;;8.85;7.47;;;15.30;41.90;;;;;;5013122;28;20239;-72
2022/01/25 02:48:32;;;;;;;9.23;7.50;;;15.30;41.20;;;;;;5011883;28;20675;-72
2022/01/25 02:51:01;;;;;;;8.20;7.05;;;15.30;41.20;;;;;;5011680;28;20207;-72
2022/01/25 02:53:28;;;;;;;9.57;7.68;;;15.30;41.20;;;;;;5012887;28;20755;-70
2022/01/25 02:55:55;;;;;;;8.18;6.75;;;15.30;41.20;;;;;;5011805;28;20288;-70
2022/01/25 02:58:22;;;;;;;8.48;6.97;;;15.30;41.30;;;;;;5011698;28;20200;-71
2022/01/25 03:00:49;;;;;;;8.70;7.20;;;15.20;41.30;;;;;;5011576;28;20197;-70
2022/01/25 03:03:16;;;;;;;7.85;7.05;;;15.20;41.20;;;;;;5011646;28;20789;-69
2022/01/25 03:05:44;;;;;;;8.57;7.68;;;15.20;41.20;;;;;;5011290;28;20269;-68
2022/01/25 03:08:14;;;;;;;8.07;7.15;;;15.20;41.10;;;;;;5011777;28;20225;-73
2022/01/25 03:10:43;;;;;;;8.07;7.30;;;15.20;41.30;;;;;;5011174;28;20201;-72
2022/01/25 03:13:19;;;;;;;8.88;7.20;;;15.10;41.30;;;;;;5011272;28;20235;-72
2022/01/25 03:16:00;;;;;;;8.88;7.45;;;15.10;41.10;;;;;;5013430;28;20189;-70
2022/01/25 03:18:43;;;;;;;8.38;7.57;;;15.10;41.10;;;;;;5015300;28;20192;-71
2022/01/25 03:23:57;;;;;;;8.05;7.25;;;15.10;41.10;;;;;;5015298;28;20248;-68
2022/01/25 03:26:25;;;;;;;8.93;7.13;;;15.10;41.80;;;;;;5016391;28;20205;-70
2022/01/25 03:28:53;;;;;;;8.60;7.65;;;15.00;41.20;;;;;;5014943;28;20205;-71
2022/01/25 03:31:20;;;;;;;8.32;6.97;;;15.00;41.30;;;;;;5015124;28;20219;-71
2022/01/25 03:33:47;;;;;;;7.30;6.60;;;15.00;41.10;;;;;;5016097;28;20209;-68
2022/01/25 03:36:14;;;;;;;8.55;7.60;;;15.00;41.20;;;;;;5015154;28;20197;-69
2022/01/25 03:38:41;;;;;;;8.68;7.65;;;15.00;41.10;;;;;;5015083;28;20668;-72
2022/01/25 03:41:11;;;;;;;8.70;7.70;;;15.00;41.10;;;;;;5015130;28;20208;-70
2022/01/25 03:43:38;;;;;;;7.47;6.75;;;14.90;40.90;;;;;;5015012;28;20283;-70
2022/01/25 03:46:11;;;;;;;7.43;6.72;;;15.00;41.20;;;;;;5014666;28;20692;-68
2022/01/25 03:51:22;;;;;;;8.95;6.63;;;14.90;41.10;;;;;;5014725;28;20192;-72
2022/01/25 03:53:51;;;;;;;7.28;6.53;;;14.90;41.10;;;;;;5014410;28;20226;-70
2022/01/25 03:56:19;;;;;;;9.48;7.00;;;14.90;41.20;;;;;;5014652;28;20200;-68
2022/01/25 03:58:46;;;;;;;7.78;7.07;;;14.90;41.10;;;;;;5014660;28;20196;-72
2022/01/25 04:01:13;;;;;;;7.05;6.20;;;14.90;41.70;;;;;;5014423;28;20197;-68
2022/01/25 04:03:48;;;;;;;7.28;6.57;;;14.90;41.20;;;;;;5014418;28;20763;-71
2022/01/25 04:06:19;;;;;;;7.00;6.25;;;14.90;41.10;;;;;;5016093;28;20568;-71
2022/01/25 04:08:47;;;;;;;7.63;6.72;;;14.80;41.20;;;;;;5014058;28;20208;-71
2022/01/25 04:11:14;;;;;;;6.95;6.32;;;14.80;41.20;;;;;;5014288;28;20219;-68
2022/01/25 04:13:42;;;;;;;7.82;7.03;;;14.80;41.20;;;;;;5014206;28;20220;-69
2022/01/25 04:16:10;;;;;;;7.70;6.97;;;14.90;41.20;;;;;;5015221;28;20192;-72
2022/01/25 04:18:50;;;;;;;7.20;6.43;;;14.80;41.20;;;;;;5013775;28;20199;-72
2022/01/25 04:21:30;;;;;;;7.28;6.57;;;14.80;41.60;;;;;;5013758;28;20649;-70
2022/01/25 04:26:41;;;;;;;7.93;7.13;;;14.80;41.50;;;;;;5014464;28;20204;-70
2022/01/25 04:29:10;;;;;;;7.20;6.50;;;14.70;41.40;;;;;;5013987;28;20208;-68
2022/01/25 04:31:37;;;;;;;9.93;7.78;;;14.80;41.20;;;;;;5013714;28;20610;-72
2022/01/25 04:34:12;;;;;;;8.43;7.63;;;14.70;41.20;;;;;;5013918;28;20271;-70
2022/01/25 04:37:02;;;;;;;7.47;6.65;;;14.70;41.00;;;;;;5014016;28;20184;-70
2022/01/25 04:50:51;;;;;;;7.63;6.80;;;14.70;41.70;;;;;;5014058;28;20688;-70
2022/01/25 04:53:25;;;;;;;7.72;6.93;;;14.70;41.10;;;;;;5013732;28;20217;-70
2022/01/25 04:55:58;;;;;;;8.48;6.72;;;14.80;41.00;;;;;;5013806;28;20188;-71
2022/01/25 04:58:32;;;;;;;7.88;7.00;;;14.80;41.00;;;;;;5014757;28;20581;-72
2022/01/25 05:01:01;;;;;;;6.68;6.03;;;14.80;41.10;;;;;;5013372;28;20196;-68
2022/01/25 05:03:41;;;;;;;7.07;6.38;;;14.80;41.00;;;;;;5014706;28;20595;-71
2022/01/25 05:06:13;;;;;;;7.18;6.32;;;14.90;40.90;;;;;;5013052;28;20205;-70
2022/01/25 05:08:44;;;;;;;6.68;5.97;;;14.90;40.90;;;;;;5014928;28;20195;-71
2022/01/25 05:11:20;;;;;;;7.07;6.38;;;14.90;40.80;;;;;;5013223;28;20272;-71
2022/01/25 05:13:53;;;;;;;6.40;5.80;;;15.00;40.70;;;;;;5013010;28;20627;-68
2022/01/25 05:16:29;;;;;;;6.65;6.00;;;15.00;40.70;;;;;;5012936;28;20188;-71
2022/01/25 05:19:05;;;;;;;6.85;5.97;;;15.00;40.40;;;;;;5013167;28;20573;-68
2022/01/25 05:24:16;;;;;;;6.38;5.78;;;15.10;40.50;;;;;;5014049;28;20204;-72
2022/01/25 05:26:44;;;;;;;6.93;6.00;;;15.10;40.20;;;;;;5012803;28;20688;-70
2022/01/25 05:29:11;;;;;;;6.82;6.22;;;15.20;40.40;;;;;;5012862;28;20620;-69
2022/01/25 05:31:39;;;;;;;6.82;6.13;;;15.20;40.10;;;;;;5013110;28;20263;-72
2022/01/25 05:34:08;;;;;;;6.40;5.72;;;15.20;40.00;;;;;;5013762;28;20644;-71
2022/01/25 05:36:35;;;;;;;6.47;5.90;;;15.20;40.10;;;;;;5014948;28;20181;-70
2022/01/25 05:39:08;;;;;;;7.43;6.72;;;15.30;40.00;;;;;;5021550;28;20200;-70
2022/01/25 05:44:25;;;;;;;7.00;6.20;;;15.30;40.10;;;;;;5011559;28;20229;-69
2022/01/25 05:47:05;;;;;;;7.53;6.57;;;15.30;40.20;;;;;;5013803;28;20265;-71
2022/01/25 05:49:33;;;;;;;8.30;7.47;;;15.40;40.30;;;;;;5012912;28;20200;-71
2022/01/25 05:52:00;;;;;;;7.43;6.40;;;15.40;40.30;;;;;;5013668;28;20692;-69
2022/01/25 05:54:27;;;;;;;9.40;6.88;;;15.40;40.20;;;;;;5012436;28;20669;-70
2022/01/25 05:56:54;;;;;;;7.15;6.50;;;15.40;39.50;;;;;;5012623;28;20657;-70
2022/01/25 05:59:21;;;;;;;7.13;6.43;;;15.40;39.60;;;;;;5012250;28;20660;-68
2022/01/25 06:01:49;;;;;;;7.30;6.45;;;15.40;39.50;;;;;;5013668;28;20235;-67
2022/01/25 06:04:17;;;;;;;7.60;6.80;;;15.50;39.70;;;;;;5012248;28;20286;-69
2022/01/25 06:06:44;;;;;;;6.70;5.97;;;15.50;40.10;;;;;;5012240;28;20247;-70
2022/01/25 06:09:12;;;;;;;7.60;6.40;;;15.50;39.60;;;;;;5012782;28;20201;-68
2022/01/25 06:11:39;;;;;;;7.75;7.03;;;15.50;39.40;;;;;;5012611;28;20202;-67
2022/01/25 06:14:06;;;;;;;7.50;6.70;;;15.50;39.60;;;;;;5012471;28;20212;-70
2022/01/25 06:16:33;;;;;;;7.20;6.47;;;15.60;39.50;;;;;;5011952;28;20197;-70
2022/01/25 06:19:00;;;;;;;6.72;6.13;;;15.60;39.40;;;;;;5012128;28;20201;-68
2022/01/25 06:21:29;;;;;;;6.50;6.00;;;15.60;39.70;;;;;;5013301;28;20364;-72
2022/01/25 06:23:56;;;;;;;7.30;6.55;;;15.60;39.30;;;;;;5012154;28;20230;-73
2022/01/25 06:26:23;;;;;;;6.50;5.90;;;15.60;39.50;;;;;;5013503;28;20203;-70
2022/01/25 06:28:50;;;;;;;7.03;6.32;;;15.70;39.50;;;;;;5012162;28;20303;-69
2022/01/25 06:31:18;;;;;;;7.35;6.68;;;15.70;39.50;;;;;;5012538;28;20230;-72
2022/01/25 06:33:46;;;;;;;7.03;6.32;;;15.60;39.40;;;;;;5012355;28;20274;-71
2022/01/25 06:36:12;;;;;;;8.30;7.60;;;15.70;39.60;;;;;;5013910;28;20203;-70
2022/01/25 06:38:41;;;;;;;6.60;5.75;;;15.70;39.40;;;;;;5018042;28;20292;-73
2022/01/25 06:41:10;;;;;;;6.28;5.68;;;15.70;39.50;;;;;;5012833;28;20542;-72
2022/01/25 06:43:38;;;;;;;7.05;6.35;;;15.70;39.40;;;;;;5012339;28;20225;-70
2022/01/25 06:46:05;;;;;;;6.47;5.88;;;15.70;39.40;;;;;;5012535;28;20238;-69
2022/01/25 06:48:32;;;;;;;6.88;6.28;;;15.70;39.60;;;;;;5013920;28;20223;-71
2022/01/25 06:50:59;;;;;;;6.82;6.22;;;15.70;39.00;;;;;;5017383;28;20196;-72
2022/01/25 06:53:26;;;;;;;6.43;5.82;;;15.70;38.90;;;;;;5016487;28;20231;-71
2022/01/25 06:55:54;;;;;;;6.78;6.18;;;15.80;39.30;;;;;;5016504;28;20207;-70
2022/01/25 06:58:22;;;;;;;7.15;6.45;;;15.80;38.90;;;;;;5016431;28;20649;-71
2022/01/25 07:00:48;;;;;;;7.03;6.32;;;15.80;39.00;;;;;;5017456;28;20677;-72
2022/01/25 07:03:15;;;;;;;6.40;5.80;;;15.80;38.80;;;;;;5016715;28;20216;-70
2022/01/25 07:05:42;;;;;;;7.57;6.78;;;15.80;38.80;;;;;;5016102;28;20208;-70
2022/01/25 07:08:09;;;;;;;6.80;6.20;;;15.80;38.60;;;;;;5015826;28;20221;-73
2022/01/25 07:10:36;;;;;;;7.72;7.03;;;15.80;38.50;;;;;;5015958;28;20308;-70
2022/01/25 07:13:05;;;;;;;6.85;6.05;;;15.80;38.40;;;;;;5015712;28;20201;-69
2022/01/25 07:15:32;;;;;;;7.75;6.95;;;15.80;38.50;;;;;;5015427;28;20213;-72
2022/01/25 07:17:59;;;;;;;7.30;6.60;;;15.80;38.40;;;;;;5015879;28;20577;-71
2022/01/25 07:20:26;;;;;;;6.65;5.97;;;15.80;38.50;;;;;;5015647;28;20200;-69
2022/01/25 07:22:53;;;;;;;7.13;6.43;;;15.80;38.80;;;;;;5015389;28;20300;-73
2022/01/25 07:25:21;;;;;;;7.43;6.72;;;15.80;38.50;;;;;;5015443;28;20228;-73
2022/01/25 07:27:48;;;;;;;7.28;6.57;;;15.80;38.60;;;;;;5016147;28;20291;-70
2022/01/25 07:30:16;;;;;;;6.75;6.22;;;15.80;38.40;;;;;;5015744;28;20254;-69
2022/01/25 07:32:44;;;;;;;7.45;6.53;;;15.80;38.50;;;;;;5015431;28;20209;-72
2022/01/25 07:35:11;;;;;;;6.95;6.35;;;15.80;38.40;;;;;;5015488;28;20215;-72
2022/01/25 07:37:38;;;;;;;7.25;6.55;;;15.80;38.20;;;;;;5017418;28;20213;-69
2022/01/25 07:40:06;;;;;;;6.93;6.25;;;15.80;38.20;;;;;;5016142;28;20200;-69
2022/01/25 07:42:36;;;;;;;6.65;6.05;;;15.90;38.20;;;;;;5017662;28;20272;-71
2022/01/25 07:45:07;;;;;;;7.47;6.75;;;15.80;37.90;;;;;;5016741;28;20231;-71
2022/01/25 07:47:36;;;;;;;6.65;5.95;;;15.90;38.00;;;;;;5014795;28;20587;-73
2022/01/25 07:50:04;;;;;;;8.32;7.53;;;15.90;38.30;;;;;;5015229;28;20209;-72
2022/01/25 07:52:31;;;;;;;7.30;6.60;;;15.90;38.00;;;;;;5015424;28;20212;-72
2022/01/25 07:54:58;;;;;;;6.40;5.80;;;15.90;38.00;;;;;;5014967;28;20224;-70
2022/01/25 07:57:26;;;;;;;6.97;6.28;;;15.90;38.00;;;;;;5015031;28;20197;-72
2022/01/25 07:59:53;;;;;;;7.20;6.50;;;15.90;38.00;;;;;;5014834;28;20201;-72
2022/01/25 08:02:20;;;;;;;8.30;6.82;;;15.90;38.00;;;;;;5014195;28;20200;-70
2022/01/25 08:04:49;;;;;;;7.93;6.72;;;16.00;38.10;;;;;;5014743;28;20220;-71
2022/01/25 08:07:16;;;;;;;6.97;6.35;;;16.00;37.90;;;;;;5014466;28;20217;-72
2022/01/25 08:09:43;;;;;;;6.68;6.07;;;16.00;38.10;;;;;;5015665;28;20267;-72
2022/01/25 08:12:11;;;;;;;7.72;6.93;;;16.00;38.10;;;;;;5014558;28;20579;-69
2022/01/25 08:14:41;;;;;;;7.05;6.45;;;16.00;37.70;;;;;;5014537;28;20224;-69
2022/01/25 08:17:09;;;;;;;7.43;6.22;;;16.00;37.80;;;;;;5014549;28;20288;-72
2022/01/25 08:19:36;;;;;;;6.85;6.20;;;16.00;37.50;;;;;;5014288;28;20638;-72
2022/01/25 08:22:04;;;;;;;7.75;7.05;;;16.10;37.70;;;;;;5014157;28;20621;-70
2022/01/25 08:24:32;;;;;;;8.73;6.32;;;16.10;37.70;;;;;;5014381;28;20221;-72
2022/01/25 08:26:59;;;;;;;6.75;6.05;;;16.10;37.70;;;;;;5014267;28;20275;-73
2022/01/25 08:29:26;;;;;;;7.40;6.70;;;16.10;37.70;;;;;;5014123;28;20636;-71
2022/01/25 08:31:53;;;;;;;7.43;6.72;;;16.10;37.60;;;;;;5014244;28;20219;-70
2022/01/25 08:34:20;;;;;;;7.57;6.88;;;16.20;37.60;;;;;;5015130;28;20671;-70
2022/01/25 08:36:47;;;;;;;6.80;6.13;;;16.10;37.40;;;;;;5014080;28;20197;-73
2022/01/25 08:39:15;;;;;;;7.82;7.03;;;16.10;37.50;;;;;;5013562;28;20202;-70
2022/01/25 08:41:43;;;;;;;6.65;5.90;;;16.20;37.60;;;;;;5015055;28;20251;-71
2022/01/25 08:44:10;;;;;;;7.03;6.30;;;16.20;37.60;;;;;;5013865;28;20327;-72
2022/01/25 08:46:38;;;;;;;6.97;6.38;;;16.20;37.50;;;;;;5013898;28;20669;-72
2022/01/25 08:49:05;;;;;;;6.90;6.30;;;16.20;37.40;;;;;;5014902;28;20684;-71
2022/01/25 08:51:32;;;;;;;8.10;7.30;;;16.20;37.50;;;;;;5013451;28;20668;-69
2022/01/25 08:54:00;;;;;;;7.45;6.70;;;16.30;37.30;;;;;;5013612;28;20236;-72
2022/01/25 08:56:28;;;;;;;7.07;6.43;;;16.20;38.00;;;;;;5013312;28;20196;-70
2022/01/25 08:58:55;;;;;;;7.03;6.32;;;16.30;37.60;;;;;;5013432;28;20193;-71
2022/01/25 09:01:22;;;;;;;6.95;6.35;;;16.30;37.50;;;;;;5013367;28;20283;-69
2022/01/25 09:03:49;;;;;;;7.60;6.90;;;16.30;37.30;;;;;;5014846;28;20248;-73
2022/01/25 09:06:18;;;;;;;6.95;6.25;;;16.30;37.40;;;;;;5013373;28;20205;-71
2022/01/25 09:08:45;;;;;;;6.60;6.00;;;16.30;37.40;;;;;;5013441;28;20220;-69
2022/01/25 09:11:12;;;;;;;7.13;6.53;;;16.30;37.40;;;;;;5013134;28;20205;-72
2022/01/25 09:13:41;;;;;;;7.63;6.93;;;16.30;37.40;;;;;;5013508;28;20251;-71
2022/01/25 09:16:08;;;;;;;7.47;6.78;;;16.40;37.50;;;;;;5013568;28;20680;-71
2022/01/25 09:18:35;;;;;;;8.07;7.28;;;16.40;37.50;;;;;;5014327;28;20571;-70
2022/01/25 09:21:02;;;;;;;8.38;6.28;;;16.40;37.50;;;;;;5013084;28;20228;-72
2022/01/25 09:23:30;;;;;;;8.48;7.68;;;16.40;37.50;;;;;;5012910;28;20224;-72
2022/01/25 09:25:57;;;;;;;7.63;6.93;;;16.50;37.60;;;;;;5012778;28;20201;-70
2022/01/25 09:28:24;;;;;;;8.70;7.75;;;16.50;38.20;;;;;;5014171;28;20201;-68
2022/01/25 09:30:52;;;;;;;8.43;7.03;;;16.50;37.30;;;;;;5012860;28;20295;-73
2022/01/25 09:33:19;;;;;;;7.43;6.72;;;16.50;37.40;;;;;;5012702;28;20229;-71
2022/01/25 09:35:47;;;;;;;7.63;6.93;;;16.50;37.60;;;;;;5012782;28;20207;-69
2022/01/25 09:38:15;;;;;;;7.38;6.68;;;16.50;37.50;;;;;;5012364;28;20203;-68
2022/01/25 09:40:43;;;;;;;7.97;7.18;;;16.50;37.40;;;;;;5012292;28;20201;-73
2022/01/25 09:43:10;;;;;;;8.70;7.90;;;16.50;37.40;;;;;;5013870;28;20213;-70
2022/01/25 09:45:37;;;;;;;8.07;7.28;;;16.60;37.20;;;;;;5012573;28;20250;-68
2022/01/25 09:48:07;;;;;;;7.95;7.15;;;16.60;37.20;;;;;;5013366;28;20216;-72
2022/01/25 09:50:34;;;;;;;8.23;7.43;;;16.60;37.40;;;;;;5012329;28;20659;-72
2022/01/25 09:53:02;;;;;;;8.05;7.35;;;16.60;37.30;;;;;;5012118;28;20227;-69
2022/01/25 09:55:32;;;;;;;8.25;7.45;;;16.60;37.40;;;;;;5012060;28;20201;-70
2022/01/25 09:57:59;;;;;;;8.00;7.20;;;16.60;37.10;;;;;;5012098;28;20208;-69
2022/01/25 10:00:28;;;;;;;7.82;6.80;;;16.70;37.40;;;;;;5012112;28;20197;-72
2022/01/25 10:03:02;;;;;;;8.70;7.90;;;16.70;37.50;;;;;;5013346;28;20196;-70
2022/01/25 10:05:35;;;;;;;7.50;6.80;;;16.70;37.40;;;;;;5011772;28;20208;-70
2022/01/25 10:08:03;;;;;;;8.95;8.07;;;16.70;37.30;;;;;;5012041;28;20335;-71
2022/01/25 10:10:31;;;;;;;8.20;7.40;;;16.70;37.20;;;;;;5011842;28;20209;-69
2022/01/25 10:13:07;;;;;;;7.97;7.28;;;16.80;37.20;;;;;;5011797;28;20193;-72
2022/01/25 10:15:35;;;;;;;8.23;7.43;;;16.80;37.30;;;;;;5011865;28;20196;-70
2022/01/25 10:18:02;;;;;;;8.43;7.45;;;16.70;37.20;;;;;;5011888;28;20193;-70
2022/01/25 10:20:31;;;;;;;7.18;6.55;;;16.80;37.20;;;;;;5012331;28;20196;-72
2022/01/25 10:23:00;;;;;;;9.73;7.97;;;16.80;37.30;;;;;;5011807;28;20204;-72
2022/01/25 10:25:32;;;;;;;7.20;6.50;;;16.80;37.20;;;;;;5011782;28;20241;-71
2022/01/25 10:28:03;;;;;;;7.70;7.00;;;16.80;37.30;;;;;;5013948;28;20249;-72
2022/01/25 10:30:32;;;;;;;8.20;7.50;;;16.80;37.30;;;;;;5013357;28;20295;-72
2022/01/25 10:33:02;;;;;;;8.68;7.85;;;16.80;37.20;;;;;;5012755;28;20204;-72
2022/01/25 10:35:31;;;;;;;8.38;7.57;;;16.90;37.30;;;;;;5012446;28;20668;-72
2022/01/25 10:37:58;;;;;;;8.20;7.47;;;16.80;37.20;;;;;;5012217;28;20193;-70
2022/01/25 10:40:38;;;;;;;8.57;7.78;;;16.80;37.20;;;;;;5013993;28;20267;-68
2022/01/25 10:43:06;;;;;;;7.88;7.18;;;16.90;37.30;;;;;;5012413;28;20235;-71
2022/01/25 10:45:34;;;;;;;8.63;7.68;;;16.90;37.90;;;;;;5012804;28;20219;-70
2022/01/25 10:48:01;;;;;;;8.32;7.53;;;16.90;37.30;;;;;;5012534;28;20709;-72
2022/01/25 10:50:31;;;;;;;8.90;7.82;;;16.90;37.10;;;;;;5012056;28;20680;-70
2022/01/25 10:53:09;;;;;;;9.52;8.55;;;17.00;37.30;;;;;;5011865;28;20197;-69
2022/01/25 10:55:38;;;;;;;10.13;9.13;;;17.00;37.00;;;;;;5012575;28;20200;-73
2022/01/25 10:58:05;;;;;;;9.05;8.15;;;17.00;37.10;;;;;;5014822;28;20193;-70
2022/01/25 11:00:34;;;;;;;8.18;7.30;;;17.00;37.20;;;;;;5012036;28;20193;-69
2022/01/25 11:03:02;;;;;;;9.00;8.10;;;17.00;37.20;;;;;;5011968;28;20231;-68
2022/01/25 11:05:33;;;;;;;8.90;8.02;;;17.00;36.90;;;;;;5012029;28;20715;-70
2022/01/25 11:08:12;;;;;;;8.90;8.10;;;17.00;36.90;;;;;;5011803;28;20221;-72
2022/01/25 11:10:47;;;;;;;8.18;7.38;;;17.10;37.10;;;;;;5013139;28;20618;-72
2022/01/25 11:13:33;;;;;;;9.63;8.48;;;17.10;37.10;;;;;;5011797;28;20220;-70
2022/01/25 11:16:02;;;;;;;7.95;7.15;;;17.10;37.00;;;;;;5012084;28;20231;-70
2022/01/25 11:18:30;;;;;;;8.18;7.38;;;17.20;37.10;;;;;;5012220;28;20189;-70
2022/01/25 11:20:58;;;;;;;8.32;7.50;;;17.20;37.10;;;;;;5011812;28;20208;-69
2022/01/25 11:23:27;;;;;;;8.55;7.75;;;17.20;37.10;;;;;;5013053;28;20213;-72
2022/01/25 11:25:55;;;;;;;7.35;6.63;;;17.30;36.90;;;;;;5011976;28;20665;-72
2022/01/25 11:28:22;;;;;;;8.68;7.18;;;17.30;37.10;;;;;;5012947;28;20213;-70
2022/01/25 11:30:49;;;;;;;9.50;8.13;;;17.30;37.10;;;;;;5013233;28;20275;-68
2022/01/25 11:33:16;;;;;;;7.88;7.10;;;17.30;37.10;;;;;;5012741;28;20212;-72
2022/01/25 11:35:43;;;;;;;8.32;7.53;;;17.40;36.90;;;;;;5013643;28;20192;-70
2022/01/25 11:38:11;;;;;;;8.65;7.75;;;17.40;37.30;;;;;;5015107;28;20570;-69
2022/01/25 11:40:40;;;;;;;8.45;7.65;;;17.40;37.10;;;;;;5014997;28;20196;-72
2022/01/25 11:43:09;;;;;;;8.13;7.43;;;17.40;37.00;;;;;;5014872;28;20317;-72
2022/01/25 11:45:37;;;;;;;8.00;7.20;;;17.40;37.20;;;;;;5015307;28;20196;-72
2022/01/25 11:48:04;;;;;;;8.15;7.35;;;17.40;37.10;;;;;;5014781;28;20193;-70
2022/01/25 11:50:32;;;;;;;9.00;8.05;;;17.40;37.10;;;;;;5014518;28;20193;-70
2022/01/25 11:53:05;;;;;;;8.95;8.18;;;17.50;37.10;;;;;;5014485;28;20192;-72
2022/01/25 11:55:34;;;;;;;9.10;8.20;;;17.50;37.10;;;;;;5014941;28;20551;-72
2022/01/25 11:58:04;;;;;;;9.55;8.55;;;17.50;37.00;;;;;;5014618;28;20233;-72
2022/01/25 12:00:43;;;;;;;8.90;8.10;;;17.50;37.00;;;;;;5014695;28;20205;-73
2022/01/25 12:03:29;;;;;;;8.00;7.20;;;17.50;37.60;;;;;;5014664;28;20250;-72
2022/01/25 12:06:01;;;;;;;8.23;7.40;;;17.60;37.10;;;;;;5015703;28;20181;-69
2022/01/25 12:08:41;;;;;;;8.90;8.00;;;17.60;37.10;;;;;;5014464;28;20216;-70
2022/01/25 12:11:30;;;;;;;9.23;8.32;;;17.70;37.10;;;;;;5015617;28;20208;-72
2022/01/25 12:14:13;;;;;;;9.35;8.45;;;17.70;36.90;;;;;;5014367;28;20224;-72
2022/01/25 12:16:43;;;;;;;8.88;8.07;;;17.70;36.90;;;;;;5015731;28;20208;-72
2022/01/25 12:19:14;;;;;;;9.27;8.38;;;17.70;36.70;;;;;;5015582;28;20177;-72
2022/01/25 12:22:04;;;;;;;10.45;9.45;;;17.70;37.00;;;;;;5014421;28;20217;-72
2022/01/25 12:24:35;;;;;;;9.52;8.63;;;17.80;37.60;;;;;;5014230;28;20240;-69
2022/01/25 12:27:07;;;;;;;10.43;9.02;;;17.80;37.60;;;;;;5014454;28;20571;-69
2022/01/25 12:29:39;;;;;;;10.02;8.85;;;17.80;36.60;;;;;;5015194;28;20215;-70
2022/01/25 12:32:20;;;;;;;11.75;9.07;;;17.80;36.90;;;;;;5015036;28;20201;-72
2022/01/25 12:35:07;;;;;;;8.82;8.02;;;17.90;36.90;;;;;;5014937;28;20681;-70
2022/01/25 12:38:00;;;;;;;9.40;8.43;;;17.90;37.10;;;;;;5016287;28;20184;-72
2022/01/25 12:40:38;;;;;;;9.77;8.75;;;17.90;36.90;;;;;;5015028;28;20197;-72
2022/01/25 12:43:07;;;;;;;9.13;8.20;;;17.90;36.90;;;;;;5016256;28;20249;-70
2022/01/25 12:45:36;;;;;;;9.93;9.02;;;18.00;36.90;;;;;;5014934;28;20196;-71
2022/01/25 12:48:04;;;;;;;10.68;9.57;;;18.00;37.20;;;;;;5014503;28;20201;-70
2022/01/25 12:50:32;;;;;;;9.40;8.57;;;18.00;37.00;;;;;;5014731;28;20225;-72
2022/01/25 12:52:59;;;;;;;10.07;9.07;;;18.00;36.90;;;;;;5014751;28;20200;-70
2022/01/25 12:55:29;;;;;;;9.63;8.63;;;18.10;37.00;;;;;;5014835;28;20242;-71
2022/01/25 12:57:56;;;;;;;10.75;9.65;;;18.10;37.00;;;;;;5014985;28;20197;-70
2022/01/25 13:00:28;;;;;;;10.05;9.05;;;18.10;36.80;;;;;;5015201;28;20216;-68
2022/01/25 13:03:20;;;;;;;9.57;8.68;;;18.10;36.80;;;;;;5015192;28;20201;-70
2022/01/25 13:05:48;;;;;;;10.45;9.50;;;18.20;36.80;;;;;;5014715;28;20193;-72
2022/01/25 13:08:21;;;;;;;10.02;9.05;;;18.20;36.80;;;;;;5016244;28;20197;-72
2022/01/25 13:10:49;;;;;;;10.05;9.13;;;18.20;36.90;;;;;;5016362;28;20637;-72
2022/01/25 13:13:23;;;;;;;9.05;8.23;;;18.20;36.70;;;;;;5014808;28;20255;-72
2022/01/25 13:15:56;;;;;;;10.45;9.45;;;18.20;36.80;;;;;;5015858;28;20209;-68
2022/01/25 13:18:27;;;;;;;9.82;8.82;;;18.20;36.70;;;;;;5014940;28;20196;-70
2022/01/25 13:21:05;;;;;;;9.75;8.82;;;18.20;36.80;;;;;;5015431;28;20200;-68
2022/01/25 13:23:33;;;;;;;9.30;8.43;;;18.20;36.80;;;;;;5016810;28;20591;-72
2022/01/25 13:26:10;;;;;;;8.98;8.10;;;18.20;36.90;;;;;;4998854;28;20197;-72
2022/01/25 13:28:52;;;;;;;9.15;8.30;;;18.20;36.80;;;;;;5014331;28;20215;-68
2022/01/25 13:31:19;;;;;;;9.95;8.98;;;18.30;36.80;;;;;;5015499;28;20191;-70
2022/01/25 13:33:48;;;;;;;9.00;8.20;;;18.30;36.60;;;;;;5015210;28;20306;-71
2022/01/25 13:36:15;;;;;;;9.40;8.50;;;18.30;36.80;;;;;;5013797;28;20300;-72
2022/01/25 13:38:44;;;;;;;9.18;8.27;;;18.30;36.90;;;;;;5013869;28;20266;-71
2022/01/25 13:41:20;;;;;;;10.13;8.45;;;18.30;37.00;;;;;;5014019;28;20205;-70
2022/01/25 13:46:34;;;;;;;9.43;8.52;;;18.30;36.80;;;;;;5013485;28;20196;-69
2022/01/25 13:49:04;;;;;;;9.88;8.85;;;18.30;37.00;;;;;;5013826;28;20244;-72
2022/01/25 13:51:37;;;;;;;10.15;9.23;;;18.30;36.70;;;;;;5013788;28;20196;-71
2022/01/25 13:54:04;;;;;;;9.35;8.45;;;18.30;36.60;;;;;;5013881;28;20225;-69
2022/01/25 13:56:32;;;;;;;10.15;9.15;;;18.30;36.60;;;;;;5015227;28;20251;-71
2022/01/25 13:59:00;;;;;;;10.15;7.95;;;18.30;37.00;;;;;;5016771;28;20193;-71
2022/01/25 14:01:29;;;;;;;9.95;8.95;;;18.30;36.90;;;;;;5016148;28;20204;-69
2022/01/25 14:03:56;;;;;;;7.97;7.22;;;18.30;36.80;;;;;;5024363;28;20193;-70
2022/01/25 14:06:26;;;;;;;8.82;7.93;;;18.40;37.10;;;;;;5016140;28;20207;-72
2022/01/25 14:08:54;;;;;;;8.90;8.10;;;18.30;36.90;;;;;;5013160;28;20320;-72
2022/01/25 14:11:27;;;;;;;9.00;8.10;;;18.30;37.00;;;;;;5013251;28;20200;-72
2022/01/25 14:22:46;;;;;;;10.38;8.38;;;18.30;37.20;;;;;;5013525;28;20596;-71